Time;durP1;ratioP1;P1;durP2;ratioP2;P2;SDS_P1;SDS_P2;PMS_P1;PMS_P2;Temp;Humidity;BMP_temperature;BMP_pressure;BME280_temperature;BME280_humidity;BME280_pressure;Samples;Min_cycle;Max_cycle;Signal;HPM_P1;HPM_P2
2023/01/15 00:00:57;;;;;;;11.55;5.07;;;;;;;16.83;68.31;99752.56;5019768;28;20033;-84
2023/01/15 00:03:22;;;;;;;10.65;5.30;;;;;;;16.84;68.21;99748.22;5039113;28;20391;-84
2023/01/15 00:05:47;;;;;;;13.02;5.50;;;;;;;16.85;67.37;99749.91;5022618;28;20045;-85
2023/01/15 00:08:13;;;;;;;15.73;5.63;;;;;;;16.83;67.54;99762.09;5022757;28;20467;-84
2023/01/15 00:10:38;;;;;;;10.73;5.05;;;;;;;16.83;68.30;99760.38;5039373;28;20082;-84
2023/01/15 00:13:04;;;;;;;11.73;4.65;;;;;;;16.84;67.56;99763.81;5025794;28;20033;-83
2023/01/15 00:15:30;;;;;;;10.68;5.00;;;;;;;16.83;68.25;99755.16;5038634;28;20542;-84
2023/01/15 00:17:55;;;;;;;12.50;5.20;;;;;;;16.84;67.83;99754.28;5038914;28;20037;-85
2023/01/15 00:20:21;;;;;;;11.07;5.00;;;;;;;16.83;67.21;99746.50;5022090;28;20037;-85
2023/01/15 00:22:46;;;;;;;9.48;4.70;;;;;;;16.83;67.38;99746.50;5022145;28;20033;-83
2023/01/15 00:27:55;;;;;;;10.40;4.80;;;;;;;16.82;67.59;99745.66;5041786;28;20052;-84
2023/01/15 00:30:23;;;;;;;11.10;4.50;;;;;;;16.83;67.21;99749.97;5022395;28;20033;-84
2023/01/15 00:32:48;;;;;;;9.23;4.35;;;;;;;16.83;67.68;99733.50;5022758;28;20068;-86
2023/01/15 00:35:20;;;;;;;13.35;5.00;;;;;;;16.82;67.49;99744.81;5039474;28;20033;-85
2023/01/15 00:37:46;;;;;;;10.02;4.18;;;;;;;16.82;67.63;99729.22;5041195;28;20103;-83
2023/01/15 00:40:13;;;;;;;9.73;4.60;;;;;;;16.81;67.05;99733.56;5066518;28;20031;-84
2023/01/15 00:42:39;;;;;;;10.57;4.57;;;;;;;16.82;67.20;99739.59;5069600;28;20021;-82
2023/01/15 00:45:09;;;;;;;10.27;4.35;;;;;;;16.82;67.04;99740.47;5068924;28;20021;-83
2023/01/15 00:47:39;;;;;;;10.68;4.50;;;;;;;16.82;66.99;99726.63;5032129;28;20035;-84
2023/01/15 00:50:08;;;;;;;12.88;4.43;;;;;;;16.81;66.81;99720.56;5030837;28;20033;-83
2023/01/15 00:52:33;;;;;;;8.95;3.72;;;;;;;16.80;66.86;99737.03;5044556;28;20035;-84
2023/01/15 00:54:58;;;;;;;10.05;4.60;;;;;;;16.80;67.00;99731.84;5023890;28;20045;-81
2023/01/15 00:57:24;;;;;;;9.23;4.28;;;;;;;16.81;66.68;99738.75;5022885;28;20032;-83
2023/01/15 00:59:49;;;;;;;10.30;4.32;;;;;;;16.80;67.03;99731.84;5037824;28;20387;-84
2023/01/15 01:02:15;;;;;;;8.13;3.65;;;;;;;16.80;66.72;99739.63;5037737;28;20518;-82
2023/01/15 01:04:40;;;;;;;11.38;4.28;;;;;;;16.80;66.42;99726.66;5037945;28;20021;-83
2023/01/15 01:07:06;;;;;;;10.75;4.20;;;;;;;16.81;66.70;99732.69;5037649;28;20479;-85
2023/01/15 01:09:31;;;;;;;8.25;3.80;;;;;;;16.80;65.79;99739.63;5037851;28;20124;-81
2023/01/15 01:11:56;;;;;;;7.68;3.78;;;;;;;16.80;66.40;99729.25;5037797;28;20414;-82
2023/01/15 01:14:22;;;;;;;10.15;4.25;;;;;;;16.80;66.73;99738.78;5055337;28;20025;-84
2023/01/15 01:16:47;;;;;;;7.07;3.33;;;;;;;16.79;65.84;99752.66;5037634;28;20025;-84
2023/01/15 01:19:17;;;;;;;8.00;4.10;;;;;;;16.79;66.62;99743.09;5037747;28;20115;-83
2023/01/15 01:21:43;;;;;;;8.40;3.88;;;;;;;16.80;65.93;99741.38;5037617;28;20107;-84
2023/01/15 01:24:18;;;;;;;7.75;3.42;;;;;;;16.79;66.01;99758.69;5068686;28;20059;-84
2023/01/15 01:26:45;;;;;;;8.77;3.50;;;;;;;16.80;65.59;99749.19;5075648;28;20048;-82
2023/01/15 01:29:15;;;;;;;10.25;4.00;;;;;;;16.79;65.66;99757.84;5056815;28;20075;-77
2023/01/15 01:31:40;;;;;;;8.48;3.42;;;;;;;16.80;66.33;99754.38;5057671;28;20042;-80
2023/01/15 01:34:06;;;;;;;9.77;3.88;;;;;;;16.79;65.35;99748.31;5023892;28;20028;-84
2023/01/15 01:36:36;;;;;;;7.60;3.40;;;;;;;16.79;65.59;99757.84;5057094;28;20021;-82
2023/01/15 01:39:03;;;;;;;8.05;3.60;;;;;;;16.80;65.75;99763.03;5058443;28;20031;-83
2023/01/15 01:41:29;;;;;;;7.03;3.45;;;;;;;16.79;65.57;99760.44;5056622;28;20386;-84
2023/01/15 01:44:00;;;;;;;7.97;3.20;;;;;;;16.80;65.74;99763.03;5040188;28;20024;-83
2023/01/15 01:46:28;;;;;;;8.15;3.25;;;;;;;16.80;65.89;99764.78;5056647;28;20020;-83
2023/01/15 01:49:03;;;;;;;7.57;3.47;;;;;;;16.79;65.83;99756.09;5074826;28;20028;-79
2023/01/15 01:51:34;;;;;;;8.93;3.65;;;;;;;16.80;65.99;99765.63;5074546;28;20107;-83
2023/01/15 01:54:01;;;;;;;5.70;3.13;;;;;;;16.80;65.19;99762.19;5056095;28;20073;-82
2023/01/15 01:56:26;;;;;;;7.82;3.53;;;;;;;16.80;65.53;99765.63;5040049;28;20067;-84
2023/01/15 01:58:54;;;;;;;8.35;3.60;;;;;;;16.80;65.79;99760.41;5057222;28;20111;-83
2023/01/15 02:01:21;;;;;;;7.78;3.30;;;;;;;16.79;65.13;99763.03;5056347;28;20102;-81
2023/01/15 02:03:46;;;;;;;6.85;3.53;;;;;;;16.72;68.36;99774.44;5056549;28;20063;-79
2023/01/15 02:06:14;;;;;;;8.32;3.50;;;;;;;16.62;68.08;99779.00;5039602;28;20060;-80
2023/01/15 02:08:39;;;;;;;10.00;2.90;;;;;;;16.58;67.96;99762.63;5023284;28;20028;-79
2023/01/15 02:11:07;;;;;;;8.40;3.45;;;;;;;16.56;68.40;99758.34;5056268;28;20029;-80
2023/01/15 02:13:49;;;;;;;5.88;2.92;;;;;;;16.53;68.24;99764.47;5074334;28;20040;-80
2023/01/15 02:16:24;;;;;;;6.50;2.85;;;;;;;16.54;68.67;99748.00;5056127;28;20386;-85
2023/01/15 02:19:08;;;;;;;7.35;3.20;;;;;;;16.47;68.74;99755.97;5056780;28;20093;-83
2023/01/15 02:21:51;;;;;;;6.80;3.00;;;;;;;16.42;68.89;99766.47;5074600;28;20029;-81
2023/01/15 02:24:31;;;;;;;9.85;3.03;;;;;;;16.40;68.72;99760.44;5056154;28;20020;-80
2023/01/15 02:27:04;;;;;;;7.60;3.10;;;;;;;16.40;68.94;99755.25;5056063;28;20028;-77
2023/01/15 02:30:01;;;;;;;6.70;2.72;;;;;;;16.39;69.05;99762.16;5074784;28;20463;-80
2023/01/15 02:33:00;;;;;;;6.72;2.67;;;;;;;16.38;68.91;99765.66;5073874;28;20127;-80
2023/01/15 02:35:37;;;;;;;8.95;3.25;;;;;;;16.38;68.79;99768.25;5055561;28;20115;-81
2023/01/15 02:38:07;;;;;;;8.38;2.78;;;;;;;16.38;68.89;99760.47;5073323;28;20035;-77
2023/01/15 02:40:34;;;;;;;8.25;2.95;;;;;;;16.37;68.66;99774.31;5055887;28;20024;-77
2023/01/15 02:43:00;;;;;;;6.68;2.90;;;;;;;16.39;69.16;99763.91;5055517;28;20028;-77
2023/01/15 02:45:39;;;;;;;6.88;2.80;;;;;;;16.38;69.02;99759.63;5055522;28;20016;-77
2023/01/15 02:48:13;;;;;;;8.70;3.05;;;;;;;16.36;69.19;99767.44;5055570;28;20074;-77
2023/01/15 02:50:48;;;;;;;7.78;2.88;;;;;;;16.36;69.06;99762.25;5055443;28;20052;-77
2023/01/15 02:53:19;;;;;;;7.60;2.75;;;;;;;16.37;69.38;99760.50;5073247;28;20622;-76
2023/01/15 02:55:49;;;;;;;7.03;2.42;;;;;;;16.37;68.86;99757.91;5055275;28;20107;-76
2023/01/15 02:58:24;;;;;;;7.18;2.83;;;;;;;16.35;69.19;99752.75;5055240;28;20397;-76
2023/01/15 03:00:54;;;;;;;6.68;2.58;;;;;;;16.36;69.11;99751.00;5055426;28;20048;-78
2023/01/15 03:03:47;;;;;;;8.43;2.88;;;;;;;16.35;68.86;99744.97;5055265;28;20521;-78
2023/01/15 03:06:20;;;;;;;7.25;2.72;;;;;;;16.35;68.83;99752.75;5055804;28;20052;-76
2023/01/15 03:08:46;;;;;;;8.43;2.70;;;;;;;16.36;69.15;99735.44;5077457;28;20024;-75
2023/01/15 03:11:15;;;;;;;7.80;2.72;;;;;;;16.35;68.94;99732.00;5042784;28;20032;-76
2023/01/15 03:13:50;;;;;;;5.30;2.58;;;;;;;16.36;69.60;99743.22;5059266;28;20025;-77
2023/01/15 03:16:34;;;;;;;5.28;2.45;;;;;;;16.34;69.11;99738.06;5059012;28;20036;-76
2023/01/15 03:19:18;;;;;;;6.82;2.92;;;;;;;16.35;69.13;99746.69;5059294;28;20486;-75
2023/01/15 03:22:04;;;;;;;8.15;2.63;;;;;;;16.35;68.82;99738.91;5077266;28;20494;-76
2023/01/15 03:24:41;;;;;;;8.25;2.88;;;;;;;16.34;69.07;99739.81;5060034;28;20024;-76
2023/01/15 03:27:07;;;;;;;5.15;2.63;;;;;;;16.34;68.92;99734.63;5078845;28;20122;-77
2023/01/15 03:29:37;;;;;;;6.85;2.47;;;;;;;16.33;68.92;99736.38;5043361;28;20042;-77
2023/01/15 03:32:03;;;;;;;6.13;2.25;;;;;;;16.33;69.18;99732.88;5060422;28;20020;-76
2023/01/15 03:34:50;;;;;;;5.03;2.45;;;;;;;16.33;68.92;99733.78;5077363;28;20112;-76
2023/01/15 03:37:16;;;;;;;5.35;2.17;;;;;;;16.34;68.94;99743.25;5059060;28;20028;-76
2023/01/15 03:39:42;;;;;;;8.48;2.70;;;;;;;16.34;68.82;99737.22;5059736;28;20032;-76
2023/01/15 03:42:15;;;;;;;5.70;2.10;;;;;;;16.32;68.94;99734.63;5042491;28;20047;-77
2023/01/15 03:45:31;;;;;;;5.82;2.42;;;;;;;16.33;69.10;99738.09;5076693;28;20402;-75
2023/01/15 03:48:04;;;;;;;6.38;2.58;;;;;;;16.33;68.78;99732.88;5042689;28;20093;-76
2023/01/15 03:50:54;;;;;;;6.72;2.55;;;;;;;16.32;69.09;99728.59;5058602;28;20016;-76
2023/01/15 03:53:33;;;;;;;5.20;2.10;;;;;;;16.32;68.61;99719.06;5058518;28;20041;-77
2023/01/15 03:56:13;;;;;;;5.13;2.10;;;;;;;16.32;69.00;99726.84;5076364;28;20541;-76
2023/01/15 03:58:44;;;;;;;6.82;2.47;;;;;;;16.31;68.82;99727.75;5058474;28;20467;-76
2023/01/15 04:01:14;;;;;;;7.68;2.30;;;;;;;16.31;68.57;99719.09;5058392;28;20025;-76
2023/01/15 04:03:41;;;;;;;5.03;2.45;;;;;;;16.31;68.83;99717.38;5076537;28;20052;-77
2023/01/15 04:06:09;;;;;;;8.13;2.25;;;;;;;16.32;68.74;99721.66;5058451;28;20044;-76
2023/01/15 04:08:39;;;;;;;6.55;2.40;;;;;;;16.30;68.57;99717.41;5058305;28;20020;-77
2023/01/15 04:11:05;;;;;;;7.07;2.33;;;;;;;16.30;68.88;99723.44;5058853;28;20360;-75
2023/01/15 04:13:30;;;;;;;4.95;2.28;;;;;;;16.30;68.61;99720.84;5058076;28;20025;-76
2023/01/15 04:15:56;;;;;;;4.35;2.08;;;;;;;16.30;68.61;99727.78;5041905;28;20033;-76
2023/01/15 04:18:21;;;;;;;6.85;2.05;;;;;;;16.30;68.78;99727.78;5024438;28;20040;-76
2023/01/15 04:20:47;;;;;;;5.38;2.30;;;;;;;16.30;68.75;99722.59;5075963;28;20402;-77
2023/01/15 04:23:13;;;;;;;6.13;2.10;;;;;;;16.30;68.67;99725.19;5041308;28;20043;-77
2023/01/15 04:25:39;;;;;;;5.53;2.10;;;;;;;16.29;68.49;99724.34;5075780;28;20024;-77
2023/01/15 04:28:06;;;;;;;5.13;2.20;;;;;;;16.29;68.40;99720.84;5024934;28;20030;-77
2023/01/15 04:30:32;;;;;;;6.90;2.35;;;;;;;16.28;68.53;99722.59;5057979;28;20028;-78
2023/01/15 04:32:57;;;;;;;4.38;2.10;;;;;;;16.28;68.47;99729.56;5057754;28;20493;-77
2023/01/15 04:35:23;;;;;;;5.15;1.98;;;;;;;16.29;68.37;99718.25;5024549;28;20021;-77
2023/01/15 04:37:48;;;;;;;5.47;2.05;;;;;;;16.29;68.41;99716.53;5024546;28;20536;-77
2023/01/15 04:44:05;;;;;;;5.90;2.00;;;;;;;16.29;68.27;99716.53;5057926;28;20143;-77
2023/01/15 04:45:44;;;;;;;5.53;1.85;;;;;;;16.27;68.20;99715.72;5075859;28;20082;-76
2023/01/15 04:48:11;;;;;;;4.40;1.80;;;;;;;16.26;68.12;99711.41;5057478;28;20032;-76
2023/01/15 04:50:37;;;;;;;7.18;2.17;;;;;;;16.27;68.59;99714.88;5058183;28;20032;-76
2023/01/15 04:53:02;;;;;;;5.10;2.05;;;;;;;16.27;68.28;99717.47;5040997;28;20028;-76
2023/01/15 04:55:29;;;;;;;5.97;1.85;;;;;;;16.26;67.86;99714.00;5024243;28;20124;-76
2023/01/15 04:57:54;;;;;;;5.13;2.22;;;;;;;16.27;67.80;99712.28;5075485;28;20028;-77
2023/01/15 05:00:20;;;;;;;5.25;2.05;;;;;;;16.26;67.97;99708.81;5041050;28;20024;-77
2023/01/15 05:02:45;;;;;;;5.05;2.00;;;;;;;16.25;67.94;99718.34;5053858;28;20503;-75
2023/01/15 05:05:10;;;;;;;5.78;2.05;;;;;;;16.25;68.08;99705.38;5037511;28;20099;-76
2023/01/15 05:07:36;;;;;;;3.85;1.70;;;;;;;16.26;68.12;99695.81;5053980;28;20064;-76
2023/01/15 05:10:01;;;;;;;5.28;1.65;;;;;;;16.27;68.45;99697.56;5020727;28;20043;-76
2023/01/15 05:12:27;;;;;;;6.20;2.13;;;;;;;16.27;68.19;99701.91;5037753;28;20063;-77
2023/01/15 05:14:52;;;;;;;4.72;1.75;;;;;;;16.27;68.06;99702.75;5037907;28;20029;-76
2023/01/15 05:17:17;;;;;;;6.35;1.90;;;;;;;16.28;68.31;99706.19;5036972;28;20037;-78
2023/01/15 05:19:43;;;;;;;5.65;1.83;;;;;;;16.27;68.05;99705.34;5053769;28;20033;-76
2023/01/15 05:22:08;;;;;;;4.65;1.90;;;;;;;16.28;68.25;99690.59;5036872;28;20051;-76
2023/01/15 05:24:34;;;;;;;5.82;1.83;;;;;;;16.27;67.99;99699.31;5036778;28;20486;-78
2023/01/15 05:26:59;;;;;;;4.47;1.70;;;;;;;16.26;67.92;99711.41;5036791;28;20033;-78
2023/01/15 05:29:25;;;;;;;3.28;1.30;;;;;;;16.27;67.76;99696.72;5036413;28;20025;-77
2023/01/15 05:31:50;;;;;;;5.65;1.60;;;;;;;16.27;67.94;99689.75;5053235;28;20052;-76
2023/01/15 05:34:16;;;;;;;4.97;1.58;;;;;;;16.26;67.90;99693.22;5036489;28;20472;-76
2023/01/15 05:36:41;;;;;;;3.38;1.60;;;;;;;16.25;67.57;99684.59;5053392;28;20059;-76
2023/01/15 05:39:07;;;;;;;3.63;1.48;;;;;;;16.24;67.67;99695.88;5020097;28;20028;-75
2023/01/15 05:41:47;;;;;;;3.55;1.70;;;;;;;16.25;67.81;99687.19;5036650;28;20028;-76
2023/01/15 05:44:14;;;;;;;5.65;1.75;;;;;;;16.25;67.28;99678.56;5038518;28;20025;-76
2023/01/15 05:46:41;;;;;;;3.95;1.48;;;;;;;16.25;67.39;99681.16;5036523;28;20390;-77
2023/01/15 05:49:09;;;;;;;5.45;1.75;;;;;;;16.26;67.57;99695.81;5036543;28;20102;-77
2023/01/15 05:51:36;;;;;;;6.40;1.60;;;;;;;16.24;67.28;99682.91;5054069;28;20031;-76
2023/01/15 05:54:03;;;;;;;3.15;1.40;;;;;;;16.24;67.37;99685.50;5036303;28;20036;-77
2023/01/15 05:56:28;;;;;;;4.90;1.58;;;;;;;16.25;67.15;99694.13;5053317;28;20025;-76
2023/01/15 05:58:53;;;;;;;4.70;1.70;;;;;;;16.24;67.14;99693.28;5052985;28;20029;-75
2023/01/15 06:01:20;;;;;;;4.18;1.55;;;;;;;16.24;67.21;99698.47;5039093;28;20060;-76
2023/01/15 06:03:47;;;;;;;3.45;1.45;;;;;;;16.24;67.27;99700.19;5074037;28;20458;-75
2023/01/15 06:06:14;;;;;;;4.55;1.60;;;;;;;16.24;67.19;99687.22;5023536;28;20386;-76
2023/01/15 06:08:40;;;;;;;4.05;1.50;;;;;;;16.23;67.39;99693.31;5056053;28;20029;-77
2023/01/15 06:11:06;;;;;;;3.47;1.38;;;;;;;16.23;66.87;99698.50;5056137;28;20023;-74
2023/01/15 06:13:31;;;;;;;3.10;1.33;;;;;;;16.24;66.85;99693.28;5040800;28;20033;-76
2023/01/15 06:15:58;;;;;;;2.88;1.27;;;;;;;16.22;66.95;99687.28;5057340;28;20021;-76
2023/01/15 06:18:24;;;;;;;3.47;1.33;;;;;;;16.23;66.58;99693.31;5040962;28;20036;-76
2023/01/15 06:20:49;;;;;;;3.53;1.40;;;;;;;16.23;66.78;99693.31;5040954;28;20024;-75
2023/01/15 06:23:16;;;;;;;3.47;1.20;;;;;;;16.22;66.76;99695.06;5039774;28;20024;-76
2023/01/15 06:25:41;;;;;;;4.38;1.55;;;;;;;16.23;66.57;99694.16;5039506;28;20051;-77
2023/01/15 06:28:07;;;;;;;3.63;1.10;;;;;;;16.24;66.97;99706.28;5039370;28;20498;-74
2023/01/15 06:30:33;;;;;;;4.10;1.33;;;;;;;16.22;66.66;99714.94;5039401;28;20123;-76
2023/01/15 06:33:00;;;;;;;3.05;1.30;;;;;;;16.23;66.66;99708.88;5039210;28;20120;-75
2023/01/15 06:35:25;;;;;;;4.18;1.50;;;;;;;16.23;66.17;99719.28;5039317;28;20028;-77
2023/01/15 06:37:51;;;;;;;4.07;1.48;;;;;;;16.22;66.20;99713.22;5040128;28;20031;-76
2023/01/15 06:40:17;;;;;;;3.22;1.40;;;;;;;16.22;66.16;99707.16;5055719;28;20085;-76
2023/01/15 06:48:12;;;;;;;3.40;1.30;;;;;;;16.23;66.55;99688.97;5059074;28;20046;-76
2023/01/15 06:50:37;;;;;;;4.32;1.45;;;;;;;16.23;66.10;99685.53;5039156;28;20461;-77
2023/01/15 06:53:03;;;;;;;3.60;1.48;;;;;;;16.22;66.30;99686.41;5073669;28;20082;-75
2023/01/15 06:55:28;;;;;;;3.58;1.40;;;;;;;16.22;66.18;99679.50;5038775;28;20032;-75
2023/01/15 06:57:53;;;;;;;4.53;1.52;;;;;;;16.23;66.09;99681.19;5022778;28;20383;-75
2023/01/15 07:00:19;;;;;;;3.33;1.40;;;;;;;16.22;66.36;99673.41;5022367;28;20390;-76
2023/01/15 07:02:45;;;;;;;3.05;1.30;;;;;;;16.23;65.88;99690.72;5055405;28;20098;-77
2023/01/15 07:05:10;;;;;;;2.70;1.10;;;;;;;16.23;66.27;99677.75;5073362;28;20021;-77
2023/01/15 07:07:36;;;;;;;2.75;1.10;;;;;;;16.22;66.30;99687.28;5038766;28;20029;-76
2023/01/15 07:10:01;;;;;;;4.05;1.50;;;;;;;16.23;65.87;99682.94;5055527;28;20547;-77
2023/01/15 07:12:27;;;;;;;2.63;1.20;;;;;;;16.24;65.92;99679.44;5055203;28;20098;-76
2023/01/15 07:14:52;;;;;;;3.35;1.27;;;;;;;16.23;66.12;99667.34;5038794;28;20391;-76
2023/01/15 07:17:18;;;;;;;3.22;1.25;;;;;;;16.22;65.81;99666.50;5038784;28;20040;-76
2023/01/15 07:19:44;;;;;;;3.72;1.30;;;;;;;16.23;65.35;99646.59;5055874;28;20127;-78
2023/01/15 07:22:10;;;;;;;3.30;1.27;;;;;;;16.22;65.79;99643.16;5073241;28;20082;-76
2023/01/15 07:24:35;;;;;;;3.30;1.23;;;;;;;16.23;65.68;99656.97;5038854;28;20430;-77
2023/01/15 07:27:01;;;;;;;3.78;1.27;;;;;;;16.24;66.16;99656.94;5055285;28;20028;-77
2023/01/15 07:29:27;;;;;;;5.07;1.45;;;;;;;16.22;65.51;99645.75;5038640;28;20047;-79
2023/01/15 07:31:52;;;;;;;4.25;1.33;;;;;;;16.24;65.69;99643.09;5055057;28;20074;-77
2023/01/15 07:34:19;;;;;;;3.05;1.25;;;;;;;16.24;66.00;99643.97;5055010;28;20056;-75
2023/01/15 07:36:45;;;;;;;2.65;1.00;;;;;;;16.25;65.73;99670.78;5055063;28;20025;-76
2023/01/15 07:39:11;;;;;;;3.90;1.30;;;;;;;16.24;65.54;99663.84;5022052;28;20054;-76
2023/01/15 07:50:13;;;;;;;3.63;1.10;;;;;;;16.25;65.68;99635.28;5058157;28;20572;-76
2023/01/15 07:52:38;;;;;;;2.92;1.20;;;;;;;16.25;65.38;99655.19;5055914;28;20036;-75
2023/01/15 07:55:04;;;;;;;3.80;1.00;;;;;;;16.26;65.81;99654.28;5058450;28;20029;-76
2023/01/15 07:57:29;;;;;;;3.30;1.17;;;;;;;16.25;65.15;99673.38;5058483;28;20025;-77
2023/01/15 07:59:55;;;;;;;3.92;1.50;;;;;;;16.26;65.24;99667.28;5042254;28;20047;-76
2023/01/15 08:02:20;;;;;;;4.85;1.38;;;;;;;16.26;65.63;99664.69;5059169;28;20056;-77
2023/01/15 08:04:46;;;;;;;3.35;1.10;;;;;;;16.26;65.56;99659.47;5058953;28;20020;-78
2023/01/15 08:07:13;;;;;;;3.28;1.10;;;;;;;16.27;65.26;99670.75;5058329;28;20082;-76
2023/01/15 08:09:39;;;;;;;1.83;1.00;;;;;;;16.28;65.25;99675.03;5058488;28;20398;-76
2023/01/15 08:17:33;;;;;;;;;;;;;;;16.28;65.27;99665.50;5047512;28;20544;-77
2023/01/15 08:19:59;;;;;;;3.60;1.17;;;;;;;16.30;65.62;99668.06;5076088;28;19909;-78
2023/01/15 08:22:25;;;;;;;2.75;1.00;;;;;;;16.29;65.11;99659.44;5041846;28;20035;-76
2023/01/15 08:24:50;;;;;;;3.05;1.20;;;;;;;16.28;65.22;99662.91;5041508;28;20029;-77
2023/01/15 08:27:16;;;;;;;3.35;1.40;;;;;;;16.29;65.18;99656.84;5041376;28;20062;-78
2023/01/15 08:29:41;;;;;;;3.53;1.17;;;;;;;16.30;65.69;99657.69;5057824;28;20073;-77
2023/01/15 08:32:07;;;;;;;3.45;1.02;;;;;;;16.30;65.18;99673.25;5076065;28;20021;-78
2023/01/15 08:34:33;;;;;;;3.65;1.30;;;;;;;16.29;65.12;99656.84;5041321;28;20036;-76
2023/01/15 08:37:01;;;;;;;5.68;1.30;;;;;;;16.30;65.28;99662.88;5075571;28;20020;-77
2023/01/15 08:39:27;;;;;;;3.83;1.40;;;;;;;16.31;64.97;99656.78;5025312;28;20033;-79
2023/01/15 08:41:53;;;;;;;2.92;1.13;;;;;;;16.29;65.33;99658.56;5041078;28;20039;-76
2023/01/15 08:44:20;;;;;;;3.33;1.20;;;;;;;16.30;65.36;99670.66;5024912;28;20147;-77
2023/01/15 08:46:46;;;;;;;3.38;1.30;;;;;;;16.30;65.70;99657.69;5025326;28;20422;-76
2023/01/15 08:49:12;;;;;;;3.78;1.20;;;;;;;16.32;64.83;99667.13;5057640;28;20435;-79
2023/01/15 08:51:37;;;;;;;2.95;1.10;;;;;;;16.33;65.13;99665.38;5041009;28;20119;-77
2023/01/15 08:54:03;;;;;;;4.35;1.20;;;;;;;16.32;65.43;99656.75;5041039;28;20470;-77
2023/01/15 08:56:28;;;;;;;4.28;1.20;;;;;;;16.33;64.82;99648.09;5057403;28;20058;-79
2023/01/15 08:58:53;;;;;;;2.85;1.05;;;;;;;16.35;64.89;99667.09;5047780;28;20055;-84
2023/01/15 09:01:19;;;;;;;4.43;1.42;;;;;;;16.35;65.16;99664.50;5049227;28;20051;-77
2023/01/15 09:03:44;;;;;;;2.40;1.05;;;;;;;16.36;64.67;99663.59;5037472;28;20032;-84
2023/01/15 09:06:10;;;;;;;2.97;1.38;;;;;;;16.36;64.58;99663.59;5070698;28;20079;-84
2023/01/15 09:08:36;;;;;;;3.53;1.38;;;;;;;16.36;65.02;99650.59;5042831;28;20471;-84
2023/01/15 09:11:03;;;;;;;3.65;1.10;;;;;;;16.38;64.55;99660.97;5058409;28;20025;-85
2023/01/15 09:13:29;;;;;;;6.45;1.48;;;;;;;16.39;64.99;99663.50;5041063;28;20024;-83
2023/01/15 09:15:59;;;;;;;4.82;1.33;;;;;;;16.38;64.70;99654.03;5040829;28;20545;-85
2023/01/15 09:18:25;;;;;;;2.63;1.05;;;;;;;16.39;64.75;99660.91;5057421;28;20119;-83
2023/01/15 09:20:50;;;;;;;4.68;1.20;;;;;;;16.41;64.89;99651.34;5040378;28;20119;-81
2023/01/15 09:23:16;;;;;;;4.88;1.35;;;;;;;16.41;65.20;99661.72;5057352;28;20033;-83
2023/01/15 09:25:53;;;;;;;3.17;1.10;;;;;;;16.43;64.62;99659.09;5057454;28;20021;-84
2023/01/15 09:28:18;;;;;;;2.58;1.17;;;;;;;16.43;64.64;99657.34;5041885;28;20078;-84
2023/01/15 09:30:44;;;;;;;4.10;1.20;;;;;;;16.45;64.87;99655.56;5057283;28;20028;-83
2023/01/15 09:33:10;;;;;;;3.35;1.13;;;;;;;16.44;64.40;99656.47;5040328;28;20082;-82
2023/01/15 09:35:36;;;;;;;3.63;1.35;;;;;;;16.45;64.81;99657.31;5040399;28;20036;-77
2023/01/15 09:38:01;;;;;;;3.42;1.10;;;;;;;16.43;64.44;99665.13;5039953;28;20379;-77
2023/01/15 09:40:59;;;;;;;2.45;1.10;;;;;;;16.45;64.11;99660.78;5039880;28;20033;-79
2023/01/15 09:43:40;;;;;;;3.20;1.27;;;;;;;16.45;64.78;99650.38;5061146;28;20107;-78
2023/01/15 09:46:16;;;;;;;4.32;1.30;;;;;;;16.47;64.21;99665.09;5056346;28;20497;-78
2023/01/15 09:48:49;;;;;;;3.50;1.35;;;;;;;16.47;64.27;99670.28;5074170;28;20032;-78
2023/01/15 09:51:18;;;;;;;3.28;1.13;;;;;;;16.48;64.32;99669.38;5056289;28;20115;-80
2023/01/15 09:53:55;;;;;;;3.17;1.30;;;;;;;16.47;64.42;99681.50;5056207;28;20029;-79
2023/01/15 09:56:24;;;;;;;3.95;1.33;;;;;;;16.45;64.21;99678.09;5056103;28;20027;-79
2023/01/15 09:58:51;;;;;;;4.55;1.48;;;;;;;16.46;64.20;99661.63;5055601;28;20550;-80
2023/01/15 10:01:20;;;;;;;4.38;1.30;;;;;;;16.47;63.77;99685.88;5039443;28;20028;-77
2023/01/15 10:03:58;;;;;;;6.40;1.63;;;;;;;16.44;63.58;99679.84;5056173;28;20047;-79
2023/01/15 10:06:27;;;;;;;5.20;1.10;;;;;;;16.47;63.65;99665.09;5073933;28;20019;-79
2023/01/15 10:09:08;;;;;;;6.32;1.45;;;;;;;16.66;63.23;99677.59;5055956;28;20016;-78
2023/01/15 10:14:37;;;;;;;7.63;1.85;;;;;;;16.91;61.78;99677.00;5074056;28;20435;-80
2023/01/15 10:17:12;;;;;;;7.20;1.85;;;;;;;16.93;61.46;99690.81;5055464;28;20024;-81
2023/01/15 10:19:39;;;;;;;10.32;2.00;;;;;;;16.97;61.55;99689.00;5040813;28;20107;-83
2023/01/15 10:22:14;;;;;;;9.20;1.75;;;;;;;16.99;61.30;99701.06;5040023;28;20021;-86
2023/01/15 10:24:49;;;;;;;12.55;1.92;;;;;;;16.97;61.44;99678.63;5056251;28;20055;-84
2023/01/15 10:27:22;;;;;;;7.38;1.77;;;;;;;16.96;61.39;99682.97;5056352;28;20024;-85
2023/01/15 10:29:53;;;;;;;6.43;1.70;;;;;;;16.97;61.03;99692.47;5056663;28;20016;-85
2023/01/15 10:32:38;;;;;;;5.90;1.60;;;;;;;16.98;61.37;99714.94;5056446;28;20020;-84
2023/01/15 10:35:20;;;;;;;5.72;1.67;;;;;;;16.98;61.26;99704.53;5056629;28;20028;-85
2023/01/15 10:38:14;;;;;;;6.10;1.60;;;;;;;16.98;61.13;99682.91;5056251;28;20035;-85
2023/01/15 10:40:45;;;;;;;5.22;1.70;;;;;;;16.98;61.29;99704.53;5056198;28;20059;-84
2023/01/15 10:43:19;;;;;;;7.57;1.70;;;;;;;16.98;60.81;99706.31;5055951;28;20470;-85
2023/01/15 10:46:09;;;;;;;6.32;1.60;;;;;;;16.98;61.16;99698.50;5056285;28;20024;-84
2023/01/15 10:48:41;;;;;;;5.57;1.60;;;;;;;16.97;61.36;99713.25;5056316;28;20037;-84
2023/01/15 10:51:29;;;;;;;6.03;1.70;;;;;;;16.97;60.74;99697.66;5075189;28;20024;-79
2023/01/15 10:53:58;;;;;;;5.82;1.70;;;;;;;16.97;60.60;99715.84;5058537;28;20251;-84
2023/01/15 10:56:36;;;;;;;7.85;1.50;;;;;;;16.97;60.96;99717.59;5056028;28;20107;-84
2023/01/15 10:59:14;;;;;;;6.13;1.70;;;;;;;16.96;60.74;99718.47;5055643;28;20089;-78
2023/01/15 11:01:40;;;;;;;7.00;1.75;;;;;;;16.94;60.53;99715.94;5073273;28;20469;-78
2023/01/15 11:04:09;;;;;;;5.00;1.60;;;;;;;16.95;60.67;99711.59;5055906;28;20051;-81
2023/01/15 11:06:34;;;;;;;6.70;1.67;;;;;;;16.96;60.79;99713.28;5055511;28;20021;-78
2023/01/15 11:09:00;;;;;;;7.82;1.90;;;;;;;16.96;60.74;99718.47;5038770;28;20082;-80
2023/01/15 11:19:39;;;;;;;6.43;1.92;;;;;;;16.95;60.76;99717.63;5055910;28;19919;-77
2023/01/15 11:22:22;;;;;;;4.93;1.75;;;;;;;16.95;60.41;99712.44;5038527;28;20119;-79
2023/01/15 11:24:53;;;;;;;7.45;1.70;;;;;;;16.96;60.22;99721.94;5038312;28;20467;-80
2023/01/15 11:27:26;;;;;;;5.93;2.03;;;;;;;16.94;60.70;99702.94;5055635;28;20051;-78
2023/01/15 11:30:00;;;;;;;6.30;1.70;;;;;;;16.98;60.38;99714.09;5058668;28;20051;-79
2023/01/15 11:32:35;;;;;;;5.07;1.65;;;;;;;16.95;60.44;99702.03;5058650;28;20026;-79
2023/01/15 11:35:12;;;;;;;9.25;2.55;;;;;;;16.83;58.62;99715.31;5059048;28;20028;-77
2023/01/15 11:37:37;;;;;;;9.93;2.22;;;;;;;16.62;60.12;99703.69;5058972;28;20055;-77
2023/01/15 11:40:06;;;;;;;7.03;2.17;;;;;;;16.64;60.40;99710.53;5042089;28;20468;-79
2023/01/15 11:51:13;;;;;;;7.38;2.20;;;;;;;16.88;59.81;99708.28;5061653;28;20028;-78
2023/01/15 11:53:58;;;;;;;5.55;1.80;;;;;;;16.91;59.88;99713.41;5055597;28;20068;-77
2023/01/15 11:56:26;;;;;;;7.90;2.30;;;;;;;16.92;59.94;99715.13;5038497;28;20053;-76
2023/01/15 11:58:55;;;;;;;7.57;2.00;;;;;;;16.92;59.59;99706.44;5055104;28;20025;-77
2023/01/15 12:01:30;;;;;;;7.15;2.13;;;;;;;16.94;59.97;99713.34;5054696;28;20396;-75
2023/01/15 12:03:59;;;;;;;6.68;1.98;;;;;;;16.96;60.04;99716.75;5055002;28;20386;-76
2023/01/15 12:06:25;;;;;;;6.15;1.98;;;;;;;16.97;59.62;99734.03;5038361;28;20013;-76
2023/01/15 12:09:00;;;;;;;7.10;2.00;;;;;;;16.98;59.35;99738.34;5022059;28;20074;-76
2023/01/15 12:11:49;;;;;;;5.80;1.73;;;;;;;17.00;59.50;99730.50;5038472;28;20033;-77
2023/01/15 12:14:38;;;;;;;6.22;1.90;;;;;;;17.01;59.16;99722.69;5054822;28;20055;-76
2023/01/15 12:17:29;;;;;;;4.63;1.80;;;;;;;17.02;59.03;99731.31;5038176;28;20615;-76
2023/01/15 12:19:58;;;;;;;4.28;1.67;;;;;;;17.02;59.11;99732.16;5054466;28;20548;-78
2023/01/15 12:22:35;;;;;;;4.75;1.80;;;;;;;17.01;59.51;99735.69;5037958;28;20025;-77
2023/01/15 12:25:09;;;;;;;4.75;1.65;;;;;;;17.02;59.48;99729.56;5037988;28;20032;-76
2023/01/15 12:28:27;;;;;;;4.63;1.92;;;;;;;17.00;59.42;99733.09;5037856;28;20021;-75
2023/01/15 12:31:06;;;;;;;4.45;1.63;;;;;;;17.00;58.88;99718.34;4962500;28;20037;-80